sensor_id;sensor_type;location;lat;lon;timestamp;P1;durP1;ratioP1;P2;durP2;ratioP2
65613;SDS011;52283;49.292;10.572;2023-10-19T00:01:22;29.10;;;17.15;;
65613;SDS011;52283;49.292;10.572;2023-10-19T00:03:49;26.10;;;15.88;;
65613;SDS011;52283;49.292;10.572;2023-10-19T00:06:16;27.70;;;15.80;;
65613;SDS011;52283;49.292;10.572;2023-10-19T00:08:43;27.35;;;15.45;;
65613;SDS011;52283;49.292;10.572;2023-10-19T00:11:10;28.52;;;15.95;;
65613;SDS011;52283;49.292;10.572;2023-10-19T00:13:46;29.30;;;16.98;;
65613;SDS011;52283;49.292;10.572;2023-10-19T00:16:16;26.13;;;16.15;;
65613;SDS011;52283;49.292;10.572;2023-10-19T00:18:47;29.15;;;16.75;;
65613;SDS011;52283;49.292;10.572;2023-10-19T00:21:13;29.00;;;17.15;;
65613;SDS011;52283;49.292;10.572;2023-10-19T00:23:45;31.40;;;16.38;;
65613;SDS011;52283;49.292;10.572;2023-10-19T00:26:13;29.80;;;17.52;;
65613;SDS011;52283;49.292;10.572;2023-10-19T00:28:42;29.15;;;16.90;;
65613;SDS011;52283;49.292;10.572;2023-10-19T00:31:11;31.45;;;16.95;;
65613;SDS011;52283;49.292;10.572;2023-10-19T00:33:38;32.22;;;16.63;;
65613;SDS011;52283;49.292;10.572;2023-10-19T00:36:06;26.42;;;16.20;;
65613;SDS011;52283;49.292;10.572;2023-10-19T00:38:33;27.65;;;16.42;;
65613;SDS011;52283;49.292;10.572;2023-10-19T00:41:12;30.92;;;18.05;;
65613;SDS011;52283;49.292;10.572;2023-10-19T00:43:44;31.48;;;17.58;;
65613;SDS011;52283;49.292;10.572;2023-10-19T00:46:11;28.10;;;18.13;;
65613;SDS011;52283;49.292;10.572;2023-10-19T00:48:48;28.13;;;16.85;;
65613;SDS011;52283;49.292;10.572;2023-10-19T00:51:18;30.25;;;17.08;;
65613;SDS011;52283;49.292;10.572;2023-10-19T00:53:55;29.13;;;18.48;;
65613;SDS011;52283;49.292;10.572;2023-10-19T00:56:24;32.30;;;17.35;;
65613;SDS011;52283;49.292;10.572;2023-10-19T00:58:54;29.85;;;18.98;;
65613;SDS011;52283;49.292;10.572;2023-10-19T01:01:26;29.38;;;17.73;;
65613;SDS011;52283;49.292;10.572;2023-10-19T01:03:56;32.65;;;18.50;;
65613;SDS011;52283;49.292;10.572;2023-10-19T01:06:23;34.50;;;17.42;;
65613;SDS011;52283;49.292;10.572;2023-10-19T01:08:50;29.60;;;16.73;;
65613;SDS011;52283;49.292;10.572;2023-10-19T01:11:17;30.13;;;18.17;;
65613;SDS011;52283;49.292;10.572;2023-10-19T01:13:46;30.50;;;18.73;;
65613;SDS011;52283;49.292;10.572;2023-10-19T01:16:13;30.33;;;18.88;;
65613;SDS011;52283;49.292;10.572;2023-10-19T01:18:47;32.40;;;18.08;;
65613;SDS011;52283;49.292;10.572;2023-10-19T01:21:19;31.60;;;18.35;;
65613;SDS011;52283;49.292;10.572;2023-10-19T01:23:51;29.30;;;17.60;;
65613;SDS011;52283;49.292;10.572;2023-10-19T01:26:18;36.15;;;19.98;;
65613;SDS011;52283;49.292;10.572;2023-10-19T01:28:47;32.85;;;19.42;;
65613;SDS011;52283;49.292;10.572;2023-10-19T01:31:17;32.90;;;18.00;;
65613;SDS011;52283;49.292;10.572;2023-10-19T01:33:56;34.53;;;18.90;;
65613;SDS011;52283;49.292;10.572;2023-10-19T01:36:24;30.98;;;18.65;;
65613;SDS011;52283;49.292;10.572;2023-10-19T01:38:51;29.05;;;17.95;;
65613;SDS011;52283;49.292;10.572;2023-10-19T01:41:20;32.83;;;19.75;;
65613;SDS011;52283;49.292;10.572;2023-10-19T01:43:47;36.70;;;19.40;;
65613;SDS011;52283;49.292;10.572;2023-10-19T01:46:15;35.97;;;19.00;;
65613;SDS011;52283;49.292;10.572;2023-10-19T01:48:47;31.58;;;18.77;;
65613;SDS011;52283;49.292;10.572;2023-10-19T01:51:15;33.63;;;18.20;;
65613;SDS011;52283;49.292;10.572;2023-10-19T01:53:41;30.73;;;18.35;;
65613;SDS011;52283;49.292;10.572;2023-10-19T01:56:10;33.00;;;16.40;;
65613;SDS011;52283;49.292;10.572;2023-10-19T01:58:37;32.10;;;19.02;;
65613;SDS011;52283;49.292;10.572;2023-10-19T02:01:05;30.75;;;16.85;;
65613;SDS011;52283;49.292;10.572;2023-10-19T02:03:39;30.52;;;16.85;;
65613;SDS011;52283;49.292;10.572;2023-10-19T02:06:07;29.90;;;16.88;;
65613;SDS011;52283;49.292;10.572;2023-10-19T02:08:41;26.65;;;17.05;;
65613;SDS011;52283;49.292;10.572;2023-10-19T02:11:12;33.15;;;18.25;;
65613;SDS011;52283;49.292;10.572;2023-10-19T02:13:41;34.15;;;19.48;;
65613;SDS011;52283;49.292;10.572;2023-10-19T02:16:08;33.45;;;18.83;;
65613;SDS011;52283;49.292;10.572;2023-10-19T02:18:34;35.95;;;19.35;;
65613;SDS011;52283;49.292;10.572;2023-10-19T02:21:00;35.88;;;19.38;;
65613;SDS011;52283;49.292;10.572;2023-10-19T02:23:31;32.72;;;18.23;;
65613;SDS011;52283;49.292;10.572;2023-10-19T02:26:00;34.95;;;18.55;;
65613;SDS011;52283;49.292;10.572;2023-10-19T02:28:27;32.47;;;18.90;;
65613;SDS011;52283;49.292;10.572;2023-10-19T02:30:57;36.17;;;19.27;;
65613;SDS011;52283;49.292;10.572;2023-10-19T02:33:22;32.38;;;20.00;;
65613;SDS011;52283;49.292;10.572;2023-10-19T02:35:51;32.92;;;18.50;;
65613;SDS011;52283;49.292;10.572;2023-10-19T02:38:18;33.25;;;19.38;;
65613;SDS011;52283;49.292;10.572;2023-10-19T02:40:43;34.38;;;18.55;;
65613;SDS011;52283;49.292;10.572;2023-10-19T02:43:11;36.90;;;20.25;;
65613;SDS011;52283;49.292;10.572;2023-10-19T02:45:38;31.88;;;18.23;;
65613;SDS011;52283;49.292;10.572;2023-10-19T02:48:04;34.97;;;20.50;;
65613;SDS011;52283;49.292;10.572;2023-10-19T02:50:36;33.70;;;19.67;;
65613;SDS011;52283;49.292;10.572;2023-10-19T02:53:03;38.28;;;21.10;;
65613;SDS011;52283;49.292;10.572;2023-10-19T02:55:30;33.65;;;19.38;;
65613;SDS011;52283;49.292;10.572;2023-10-19T02:57:57;35.25;;;19.80;;
65613;SDS011;52283;49.292;10.572;2023-10-19T03:00:24;34.40;;;19.98;;
65613;SDS011;52283;49.292;10.572;2023-10-19T03:02:59;32.83;;;19.77;;
65613;SDS011;52283;49.292;10.572;2023-10-19T03:05:26;37.13;;;20.65;;
65613;SDS011;52283;49.292;10.572;2023-10-19T03:07:53;35.75;;;20.08;;
65613;SDS011;52283;49.292;10.572;2023-10-19T03:10:19;39.20;;;20.88;;
65613;SDS011;52283;49.292;10.572;2023-10-19T03:12:59;35.38;;;21.35;;
65613;SDS011;52283;49.292;10.572;2023-10-19T03:15:24;38.03;;;21.20;;
65613;SDS011;52283;49.292;10.572;2023-10-19T03:17:52;39.10;;;20.40;;
65613;SDS011;52283;49.292;10.572;2023-10-19T03:20:19;35.58;;;20.52;;
65613;SDS011;52283;49.292;10.572;2023-10-19T03:22:48;36.53;;;20.42;;
65613;SDS011;52283;49.292;10.572;2023-10-19T03:25:14;38.28;;;21.58;;
65613;SDS011;52283;49.292;10.572;2023-10-19T03:27:56;35.22;;;20.10;;
65613;SDS011;52283;49.292;10.572;2023-10-19T03:30:22;38.22;;;21.83;;
65613;SDS011;52283;49.292;10.572;2023-10-19T03:32:50;44.55;;;21.02;;
65613;SDS011;52283;49.292;10.572;2023-10-19T03:35:18;42.55;;;22.75;;
65613;SDS011;52283;49.292;10.572;2023-10-19T03:37:46;42.80;;;23.38;;
65613;SDS011;52283;49.292;10.572;2023-10-19T03:40:16;43.65;;;22.52;;
65613;SDS011;52283;49.292;10.572;2023-10-19T03:42:52;39.88;;;23.02;;
65613;SDS011;52283;49.292;10.572;2023-10-19T03:45:20;43.80;;;23.25;;
65613;SDS011;52283;49.292;10.572;2023-10-19T03:47:49;40.05;;;22.77;;
65613;SDS011;52283;49.292;10.572;2023-10-19T03:50:15;47.33;;;23.67;;
65613;SDS011;52283;49.292;10.572;2023-10-19T03:52:47;40.58;;;23.45;;
65613;SDS011;52283;49.292;10.572;2023-10-19T03:55:13;49.03;;;24.58;;
65613;SDS011;52283;49.292;10.572;2023-10-19T03:57:44;48.90;;;24.60;;
65613;SDS011;52283;49.292;10.572;2023-10-19T04:00:15;56.15;;;27.00;;
65613;SDS011;52283;49.292;10.572;2023-10-19T04:02:44;50.35;;;26.13;;
65613;SDS011;52283;49.292;10.572;2023-10-19T04:05:12;53.35;;;26.73;;
65613;SDS011;52283;49.292;10.572;2023-10-19T04:07:46;52.05;;;27.30;;
65613;SDS011;52283;49.292;10.572;2023-10-19T04:10:15;53.97;;;28.17;;
65613;SDS011;52283;49.292;10.572;2023-10-19T04:12:54;59.67;;;28.48;;
65613;SDS011;52283;49.292;10.572;2023-10-19T04:15:22;59.55;;;27.17;;
65613;SDS011;52283;49.292;10.572;2023-10-19T04:17:51;55.85;;;26.15;;
65613;SDS011;52283;49.292;10.572;2023-10-19T04:20:20;49.42;;;24.98;;
65613;SDS011;52283;49.292;10.572;2023-10-19T04:23:08;50.92;;;26.88;;
65613;SDS011;52283;49.292;10.572;2023-10-19T04:25:38;49.38;;;27.00;;
65613;SDS011;52283;49.292;10.572;2023-10-19T04:28:05;52.58;;;25.33;;
65613;SDS011;52283;49.292;10.572;2023-10-19T04:30:32;48.42;;;25.60;;
65613;SDS011;52283;49.292;10.572;2023-10-19T04:33:03;55.95;;;27.30;;
65613;SDS011;52283;49.292;10.572;2023-10-19T04:35:34;49.97;;;27.10;;
65613;SDS011;52283;49.292;10.572;2023-10-19T04:38:00;47.63;;;25.27;;
65613;SDS011;52283;49.292;10.572;2023-10-19T04:40:29;48.55;;;26.30;;
65613;SDS011;52283;49.292;10.572;2023-10-19T04:42:56;50.78;;;28.52;;
65613;SDS011;52283;49.292;10.572;2023-10-19T04:45:23;51.55;;;25.08;;
65613;SDS011;52283;49.292;10.572;2023-10-19T04:47:50;53.95;;;26.33;;
65613;SDS011;52283;49.292;10.572;2023-10-19T04:50:18;50.20;;;26.63;;
65613;SDS011;52283;49.292;10.572;2023-10-19T04:52:45;46.30;;;24.85;;
65613;SDS011;52283;49.292;10.572;2023-10-19T04:55:12;51.58;;;25.98;;
65613;SDS011;52283;49.292;10.572;2023-10-19T04:57:40;53.85;;;25.63;;
65613;SDS011;52283;49.292;10.572;2023-10-19T05:00:07;50.55;;;28.05;;
65613;SDS011;52283;49.292;10.572;2023-10-19T05:05:04;46.22;;;25.63;;
65613;SDS011;52283;49.292;10.572;2023-10-19T05:07:31;47.30;;;25.63;;
65613;SDS011;52283;49.292;10.572;2023-10-19T05:09:58;50.85;;;26.40;;
65613;SDS011;52283;49.292;10.572;2023-10-19T05:12:25;44.35;;;23.27;;
65613;SDS011;52283;49.292;10.572;2023-10-19T05:14:53;47.63;;;25.55;;
65613;SDS011;52283;49.292;10.572;2023-10-19T05:17:20;45.40;;;25.33;;
65613;SDS011;52283;49.292;10.572;2023-10-19T05:19:48;51.15;;;25.08;;
65613;SDS011;52283;49.292;10.572;2023-10-19T05:22:16;52.80;;;26.08;;
65613;SDS011;52283;49.292;10.572;2023-10-19T05:24:43;43.50;;;24.73;;
65613;SDS011;52283;49.292;10.572;2023-10-19T05:27:09;50.30;;;26.42;;
65613;SDS011;52283;49.292;10.572;2023-10-19T05:29:35;48.25;;;24.77;;
65613;SDS011;52283;49.292;10.572;2023-10-19T05:32:04;46.80;;;25.17;;
65613;SDS011;52283;49.292;10.572;2023-10-19T05:34:31;46.63;;;26.92;;
65613;SDS011;52283;49.292;10.572;2023-10-19T05:36:57;46.13;;;23.77;;
65613;SDS011;52283;49.292;10.572;2023-10-19T05:39:27;47.63;;;25.23;;
65613;SDS011;52283;49.292;10.572;2023-10-19T05:41:53;44.63;;;24.42;;
65613;SDS011;52283;49.292;10.572;2023-10-19T05:44:20;40.13;;;24.05;;
65613;SDS011;52283;49.292;10.572;2023-10-19T05:46:49;43.90;;;24.65;;
65613;SDS011;52283;49.292;10.572;2023-10-19T05:49:17;46.08;;;25.33;;
65613;SDS011;52283;49.292;10.572;2023-10-19T05:51:44;41.58;;;24.75;;
65613;SDS011;52283;49.292;10.572;2023-10-19T05:54:11;41.88;;;23.23;;
65613;SDS011;52283;49.292;10.572;2023-10-19T05:56:38;42.80;;;23.60;;
65613;SDS011;52283;49.292;10.572;2023-10-19T05:59:04;42.55;;;23.38;;
65613;SDS011;52283;49.292;10.572;2023-10-19T06:01:31;43.70;;;23.77;;
65613;SDS011;52283;49.292;10.572;2023-10-19T06:03:58;42.10;;;22.92;;
65613;SDS011;52283;49.292;10.572;2023-10-19T06:06:26;40.85;;;23.52;;
65613;SDS011;52283;49.292;10.572;2023-10-19T06:08:52;41.28;;;23.33;;
65613;SDS011;52283;49.292;10.572;2023-10-19T06:11:19;41.70;;;23.42;;
65613;SDS011;52283;49.292;10.572;2023-10-19T06:13:46;45.65;;;26.08;;
65613;SDS011;52283;49.292;10.572;2023-10-19T06:16:12;45.80;;;26.65;;
65613;SDS011;52283;49.292;10.572;2023-10-19T06:18:39;39.55;;;22.85;;
65613;SDS011;52283;49.292;10.572;2023-10-19T06:21:05;41.38;;;23.13;;
65613;SDS011;52283;49.292;10.572;2023-10-19T06:23:33;43.63;;;24.75;;
65613;SDS011;52283;49.292;10.572;2023-10-19T06:26:08;40.75;;;23.45;;
65613;SDS011;52283;49.292;10.572;2023-10-19T06:28:36;40.00;;;22.50;;
65613;SDS011;52283;49.292;10.572;2023-10-19T06:31:04;42.30;;;22.65;;
65613;SDS011;52283;49.292;10.572;2023-10-19T06:33:30;39.58;;;23.88;;
65613;SDS011;52283;49.292;10.572;2023-10-19T06:35:58;39.70;;;22.30;;
65613;SDS011;52283;49.292;10.572;2023-10-19T06:38:26;47.25;;;24.95;;
65613;SDS011;52283;49.292;10.572;2023-10-19T06:40:54;39.83;;;23.58;;
65613;SDS011;52283;49.292;10.572;2023-10-19T06:43:21;38.28;;;22.30;;
65613;SDS011;52283;49.292;10.572;2023-10-19T06:45:52;37.97;;;23.10;;
65613;SDS011;52283;49.292;10.572;2023-10-19T06:48:20;44.53;;;22.70;;
65613;SDS011;52283;49.292;10.572;2023-10-19T06:50:46;40.45;;;22.35;;
65613;SDS011;52283;49.292;10.572;2023-10-19T06:53:13;39.60;;;23.92;;
65613;SDS011;52283;49.292;10.572;2023-10-19T06:55:39;40.97;;;22.42;;
65613;SDS011;52283;49.292;10.572;2023-10-19T06:58:07;52.00;;;26.42;;
65613;SDS011;52283;49.292;10.572;2023-10-19T07:00:34;62.95;;;30.50;;
65613;SDS011;52283;49.292;10.572;2023-10-19T07:03:07;45.78;;;28.08;;
65613;SDS011;52283;49.292;10.572;2023-10-19T07:05:33;45.08;;;23.27;;
65613;SDS011;52283;49.292;10.572;2023-10-19T07:08:00;38.28;;;22.92;;
65613;SDS011;52283;49.292;10.572;2023-10-19T07:10:27;38.20;;;20.73;;
65613;SDS011;52283;49.292;10.572;2023-10-19T07:12:54;36.78;;;21.52;;
65613;SDS011;52283;49.292;10.572;2023-10-19T07:15:24;35.60;;;22.15;;
65613;SDS011;52283;49.292;10.572;2023-10-19T07:17:52;35.38;;;22.02;;
65613;SDS011;52283;49.292;10.572;2023-10-19T07:20:19;40.60;;;21.85;;
65613;SDS011;52283;49.292;10.572;2023-10-19T07:22:52;38.10;;;21.67;;
65613;SDS011;52283;49.292;10.572;2023-10-19T07:25:18;35.75;;;22.35;;
65613;SDS011;52283;49.292;10.572;2023-10-19T07:27:46;34.00;;;20.88;;
65613;SDS011;52283;49.292;10.572;2023-10-19T07:30:14;56.25;;;28.65;;
65613;SDS011;52283;49.292;10.572;2023-10-19T07:32:47;40.03;;;24.80;;
65613;SDS011;52283;49.292;10.572;2023-10-19T07:35:16;36.65;;;19.80;;
65613;SDS011;52283;49.292;10.572;2023-10-19T07:37:43;33.92;;;21.10;;
65613;SDS011;52283;49.292;10.572;2023-10-19T07:40:10;35.97;;;21.60;;
65613;SDS011;52283;49.292;10.572;2023-10-19T07:42:39;31.98;;;20.17;;
65613;SDS011;52283;49.292;10.572;2023-10-19T07:45:06;32.55;;;20.75;;
65613;SDS011;52283;49.292;10.572;2023-10-19T07:47:36;37.10;;;20.55;;
65613;SDS011;52283;49.292;10.572;2023-10-19T07:50:05;35.95;;;21.15;;
65613;SDS011;52283;49.292;10.572;2023-10-19T07:52:37;34.50;;;19.65;;
65613;SDS011;52283;49.292;10.572;2023-10-19T07:55:04;35.30;;;20.45;;
65613;SDS011;52283;49.292;10.572;2023-10-19T07:57:31;34.05;;;21.20;;
65613;SDS011;52283;49.292;10.572;2023-10-19T07:59:59;32.53;;;19.98;;
65613;SDS011;52283;49.292;10.572;2023-10-19T08:02:25;32.20;;;19.52;;
65613;SDS011;52283;49.292;10.572;2023-10-19T08:04:53;32.83;;;20.88;;
65613;SDS011;52283;49.292;10.572;2023-10-19T08:07:22;52.35;;;28.27;;
65613;SDS011;52283;49.292;10.572;2023-10-19T08:09:51;41.15;;;23.23;;
65613;SDS011;52283;49.292;10.572;2023-10-19T08:12:18;32.42;;;20.50;;
65613;SDS011;52283;49.292;10.572;2023-10-19T08:14:44;26.50;;;17.75;;
65613;SDS011;52283;49.292;10.572;2023-10-19T08:17:11;32.42;;;19.95;;
65613;SDS011;52283;49.292;10.572;2023-10-19T08:19:38;33.85;;;20.02;;
65613;SDS011;52283;49.292;10.572;2023-10-19T08:22:05;29.60;;;20.25;;
65613;SDS011;52283;49.292;10.572;2023-10-19T08:24:32;36.30;;;20.83;;
65613;SDS011;52283;49.292;10.572;2023-10-19T08:27:00;38.92;;;23.45;;
65613;SDS011;52283;49.292;10.572;2023-10-19T08:29:26;40.28;;;23.83;;
65613;SDS011;52283;49.292;10.572;2023-10-19T08:31:55;34.47;;;20.27;;
65613;SDS011;52283;49.292;10.572;2023-10-19T08:34:22;32.53;;;20.52;;
65613;SDS011;52283;49.292;10.572;2023-10-19T08:36:50;32.08;;;20.48;;
65613;SDS011;52283;49.292;10.572;2023-10-19T08:39:17;28.60;;;19.83;;
65613;SDS011;52283;49.292;10.572;2023-10-19T08:41:45;28.25;;;19.25;;
65613;SDS011;52283;49.292;10.572;2023-10-19T08:44:13;35.13;;;21.73;;
65613;SDS011;52283;49.292;10.572;2023-10-19T08:46:40;29.25;;;19.90;;
65613;SDS011;52283;49.292;10.572;2023-10-19T08:49:09;36.65;;;20.60;;
65613;SDS011;52283;49.292;10.572;2023-10-19T08:51:37;33.50;;;19.75;;
65613;SDS011;52283;49.292;10.572;2023-10-19T08:54:04;33.03;;;21.35;;
65613;SDS011;52283;49.292;10.572;2023-10-19T08:56:32;33.00;;;21.73;;
65613;SDS011;52283;49.292;10.572;2023-10-19T08:59:00;32.75;;;20.30;;
65613;SDS011;52283;49.292;10.572;2023-10-19T09:01:27;36.00;;;20.42;;
65613;SDS011;52283;49.292;10.572;2023-10-19T09:03:56;34.90;;;22.55;;
65613;SDS011;52283;49.292;10.572;2023-10-19T09:06:23;34.60;;;19.75;;
65613;SDS011;52283;49.292;10.572;2023-10-19T09:08:50;37.50;;;21.35;;
65613;SDS011;52283;49.292;10.572;2023-10-19T09:11:16;31.80;;;20.63;;
65613;SDS011;52283;49.292;10.572;2023-10-19T09:13:46;32.50;;;21.15;;
65613;SDS011;52283;49.292;10.572;2023-10-19T09:16:16;43.85;;;26.08;;
65613;SDS011;52283;49.292;10.572;2023-10-19T09:18:44;31.30;;;19.42;;
65613;SDS011;52283;49.292;10.572;2023-10-19T09:21:14;34.47;;;19.75;;
65613;SDS011;52283;49.292;10.572;2023-10-19T09:23:49;36.47;;;20.90;;
65613;SDS011;52283;49.292;10.572;2023-10-19T09:26:16;34.70;;;21.45;;
65613;SDS011;52283;49.292;10.572;2023-10-19T09:28:45;31.75;;;20.17;;
65613;SDS011;52283;49.292;10.572;2023-10-19T09:31:13;35.80;;;21.00;;
65613;SDS011;52283;49.292;10.572;2023-10-19T09:33:43;31.70;;;19.85;;
65613;SDS011;52283;49.292;10.572;2023-10-19T09:36:10;32.47;;;19.60;;
65613;SDS011;52283;49.292;10.572;2023-10-19T09:38:39;32.65;;;19.73;;
65613;SDS011;52283;49.292;10.572;2023-10-19T09:41:06;30.27;;;18.63;;
65613;SDS011;52283;49.292;10.572;2023-10-19T09:43:39;33.13;;;20.15;;
65613;SDS011;52283;49.292;10.572;2023-10-19T09:46:09;34.08;;;20.65;;
65613;SDS011;52283;49.292;10.572;2023-10-19T09:48:38;32.22;;;18.77;;
65613;SDS011;52283;49.292;10.572;2023-10-19T09:51:08;29.80;;;18.73;;
65613;SDS011;52283;49.292;10.572;2023-10-19T09:53:36;29.27;;;18.15;;
65613;SDS011;52283;49.292;10.572;2023-10-19T09:56:05;31.58;;;18.08;;
65613;SDS011;52283;49.292;10.572;2023-10-19T09:58:35;30.00;;;19.25;;
65613;SDS011;52283;49.292;10.572;2023-10-19T10:01:05;27.27;;;19.60;;
65613;SDS011;52283;49.292;10.572;2023-10-19T10:03:44;26.15;;;18.27;;
65613;SDS011;52283;49.292;10.572;2023-10-19T10:06:13;29.98;;;19.35;;
65613;SDS011;52283;49.292;10.572;2023-10-19T10:08:41;29.83;;;18.10;;
65613;SDS011;52283;49.292;10.572;2023-10-19T10:11:18;30.55;;;18.48;;
65613;SDS011;52283;49.292;10.572;2023-10-19T10:13:46;28.50;;;18.75;;
65613;SDS011;52283;49.292;10.572;2023-10-19T10:16:16;25.98;;;17.42;;
65613;SDS011;52283;49.292;10.572;2023-10-19T10:18:45;23.23;;;16.75;;
65613;SDS011;52283;49.292;10.572;2023-10-19T10:21:16;26.45;;;18.45;;
65613;SDS011;52283;49.292;10.572;2023-10-19T10:23:46;29.70;;;20.60;;
65613;SDS011;52283;49.292;10.572;2023-10-19T10:26:14;26.73;;;18.08;;
65613;SDS011;52283;49.292;10.572;2023-10-19T10:28:45;25.17;;;16.45;;
65613;SDS011;52283;49.292;10.572;2023-10-19T10:31:14;21.55;;;14.73;;
65613;SDS011;52283;49.292;10.572;2023-10-19T10:33:46;20.15;;;15.07;;
65613;SDS011;52283;49.292;10.572;2023-10-19T10:36:13;18.25;;;13.85;;
65613;SDS011;52283;49.292;10.572;2023-10-19T10:38:43;23.95;;;17.13;;
65613;SDS011;52283;49.292;10.572;2023-10-19T10:41:10;20.25;;;13.13;;
65613;SDS011;52283;49.292;10.572;2023-10-19T10:43:47;20.77;;;13.68;;
65613;SDS011;52283;49.292;10.572;2023-10-19T10:46:18;17.35;;;12.68;;
65613;SDS011;52283;49.292;10.572;2023-10-19T10:48:46;19.38;;;13.30;;
65613;SDS011;52283;49.292;10.572;2023-10-19T10:51:16;19.40;;;13.43;;
65613;SDS011;52283;49.292;10.572;2023-10-19T10:53:47;18.77;;;12.48;;
65613;SDS011;52283;49.292;10.572;2023-10-19T10:56:14;18.67;;;14.32;;
65613;SDS011;52283;49.292;10.572;2023-10-19T10:58:41;18.52;;;12.98;;
65613;SDS011;52283;49.292;10.572;2023-10-19T11:01:07;17.83;;;13.05;;
65613;SDS011;52283;49.292;10.572;2023-10-19T11:03:35;19.55;;;13.35;;
65613;SDS011;52283;49.292;10.572;2023-10-19T11:06:05;21.23;;;12.27;;
65613;SDS011;52283;49.292;10.572;2023-10-19T11:11:03;20.60;;;11.63;;
65613;SDS011;52283;49.292;10.572;2023-10-19T11:15:59;17.98;;;12.13;;
65613;SDS011;52283;49.292;10.572;2023-10-19T11:18:30;16.92;;;12.20;;
65613;SDS011;52283;49.292;10.572;2023-10-19T11:20:58;17.60;;;12.07;;
65613;SDS011;52283;49.292;10.572;2023-10-19T11:23:39;17.48;;;11.60;;
65613;SDS011;52283;49.292;10.572;2023-10-19T11:26:08;17.77;;;12.55;;
65613;SDS011;52283;49.292;10.572;2023-10-19T11:28:35;16.65;;;12.98;;
65613;SDS011;52283;49.292;10.572;2023-10-19T11:31:14;23.38;;;13.13;;
65613;SDS011;52283;49.292;10.572;2023-10-19T11:33:42;21.17;;;13.85;;
65613;SDS011;52283;49.292;10.572;2023-10-19T11:36:10;18.40;;;13.35;;
65613;SDS011;52283;49.292;10.572;2023-10-19T11:38:38;21.27;;;13.73;;
65613;SDS011;52283;49.292;10.572;2023-10-19T11:41:05;20.33;;;15.10;;
65613;SDS011;52283;49.292;10.572;2023-10-19T11:43:34;19.00;;;14.10;;
65613;SDS011;52283;49.292;10.572;2023-10-19T11:46:00;22.23;;;13.55;;
65613;SDS011;52283;49.292;10.572;2023-10-19T11:48:27;21.38;;;15.45;;
65613;SDS011;52283;49.292;10.572;2023-10-19T11:50:53;20.67;;;14.25;;
65613;SDS011;52283;49.292;10.572;2023-10-19T11:53:20;19.45;;;14.93;;
65613;SDS011;52283;49.292;10.572;2023-10-19T11:55:46;21.38;;;15.23;;
65613;SDS011;52283;49.292;10.572;2023-10-19T11:58:14;21.45;;;14.13;;
65613;SDS011;52283;49.292;10.572;2023-10-19T12:00:42;20.75;;;14.55;;
65613;SDS011;52283;49.292;10.572;2023-10-19T12:03:11;22.73;;;14.93;;
65613;SDS011;52283;49.292;10.572;2023-10-19T12:05:38;21.52;;;14.57;;
65613;SDS011;52283;49.292;10.572;2023-10-19T12:08:05;21.08;;;14.75;;
65613;SDS011;52283;49.292;10.572;2023-10-19T12:10:31;21.73;;;14.65;;
65613;SDS011;52283;49.292;10.572;2023-10-19T12:13:00;18.30;;;14.15;;
65613;SDS011;52283;49.292;10.572;2023-10-19T12:15:27;23.08;;;14.32;;
65613;SDS011;52283;49.292;10.572;2023-10-19T12:17:55;21.35;;;13.75;;
65613;SDS011;52283;49.292;10.572;2023-10-19T12:20:22;21.92;;;14.77;;
65613;SDS011;52283;49.292;10.572;2023-10-19T12:22:49;18.60;;;14.52;;
65613;SDS011;52283;49.292;10.572;2023-10-19T12:25:17;18.27;;;13.98;;
65613;SDS011;52283;49.292;10.572;2023-10-19T12:27:43;21.08;;;13.82;;
65613;SDS011;52283;49.292;10.572;2023-10-19T12:30:10;22.70;;;14.05;;
65613;SDS011;52283;49.292;10.572;2023-10-19T12:32:44;21.10;;;13.15;;
65613;SDS011;52283;49.292;10.572;2023-10-19T12:35:15;20.45;;;14.13;;
65613;SDS011;52283;49.292;10.572;2023-10-19T12:37:44;20.00;;;13.70;;
65613;SDS011;52283;49.292;10.572;2023-10-19T12:40:16;17.58;;;13.00;;
65613;SDS011;52283;49.292;10.572;2023-10-19T12:42:52;17.77;;;12.55;;
65613;SDS011;52283;49.292;10.572;2023-10-19T12:45:20;19.92;;;13.52;;
65613;SDS011;52283;49.292;10.572;2023-10-19T12:47:47;18.60;;;13.70;;
65613;SDS011;52283;49.292;10.572;2023-10-19T12:50:13;24.90;;;15.13;;
65613;SDS011;52283;49.292;10.572;2023-10-19T12:52:42;22.35;;;13.60;;
65613;SDS011;52283;49.292;10.572;2023-10-19T12:55:08;21.05;;;13.05;;
65613;SDS011;52283;49.292;10.572;2023-10-19T12:57:36;16.67;;;13.35;;
65613;SDS011;52283;49.292;10.572;2023-10-19T13:00:03;17.83;;;12.57;;
65613;SDS011;52283;49.292;10.572;2023-10-19T13:02:49;23.20;;;14.02;;
65613;SDS011;52283;49.292;10.572;2023-10-19T13:05:15;17.38;;;12.57;;
65613;SDS011;52283;49.292;10.572;2023-10-19T13:07:44;19.00;;;12.82;;
65613;SDS011;52283;49.292;10.572;2023-10-19T13:10:11;17.58;;;12.75;;
65613;SDS011;52283;49.292;10.572;2023-10-19T13:12:38;18.25;;;11.57;;
65613;SDS011;52283;49.292;10.572;2023-10-19T13:15:06;17.08;;;13.00;;
65613;SDS011;52283;49.292;10.572;2023-10-19T13:17:38;18.35;;;12.77;;
65613;SDS011;52283;49.292;10.572;2023-10-19T13:20:05;16.30;;;12.27;;
65613;SDS011;52283;49.292;10.572;2023-10-19T13:22:41;18.75;;;13.63;;
65613;SDS011;52283;49.292;10.572;2023-10-19T13:25:09;20.63;;;13.35;;
65613;SDS011;52283;49.292;10.572;2023-10-19T13:27:38;22.27;;;13.75;;
65613;SDS011;52283;49.292;10.572;2023-10-19T13:30:07;17.10;;;13.25;;
65613;SDS011;52283;49.292;10.572;2023-10-19T13:32:35;19.67;;;14.15;;
65613;SDS011;52283;49.292;10.572;2023-10-19T13:35:02;20.92;;;14.63;;
65613;SDS011;52283;49.292;10.572;2023-10-19T13:37:29;19.15;;;13.50;;
65613;SDS011;52283;49.292;10.572;2023-10-19T13:39:55;21.08;;;14.80;;
65613;SDS011;52283;49.292;10.572;2023-10-19T13:42:23;22.05;;;13.55;;
65613;SDS011;52283;49.292;10.572;2023-10-19T13:44:49;18.00;;;12.77;;
65613;SDS011;52283;49.292;10.572;2023-10-19T13:47:16;17.50;;;13.00;;
65613;SDS011;52283;49.292;10.572;2023-10-19T13:49:43;19.23;;;13.65;;
65613;SDS011;52283;49.292;10.572;2023-10-19T13:52:11;18.17;;;13.23;;
65613;SDS011;52283;49.292;10.572;2023-10-19T13:54:40;22.85;;;13.90;;
65613;SDS011;52283;49.292;10.572;2023-10-19T13:57:07;19.88;;;14.43;;
65613;SDS011;52283;49.292;10.572;2023-10-19T13:59:36;18.70;;;14.52;;
65613;SDS011;52283;49.292;10.572;2023-10-19T14:02:03;22.70;;;14.68;;
65613;SDS011;52283;49.292;10.572;2023-10-19T14:04:30;21.08;;;14.27;;
65613;SDS011;52283;49.292;10.572;2023-10-19T14:06:57;21.42;;;14.38;;
65613;SDS011;52283;49.292;10.572;2023-10-19T14:09:24;19.85;;;14.50;;
65613;SDS011;52283;49.292;10.572;2023-10-19T14:11:53;24.08;;;14.40;;
65613;SDS011;52283;49.292;10.572;2023-10-19T14:14:19;18.95;;;14.23;;
65613;SDS011;52283;49.292;10.572;2023-10-19T14:16:47;25.15;;;15.52;;
65613;SDS011;52283;49.292;10.572;2023-10-19T14:19:15;25.42;;;16.25;;
65613;SDS011;52283;49.292;10.572;2023-10-19T14:21:42;20.63;;;15.10;;
65613;SDS011;52283;49.292;10.572;2023-10-19T14:24:11;27.20;;;16.10;;